sensor_id;sensor_type;location;lat;lon;timestamp;P1;durP1;ratioP1;P2;durP2;ratioP2
61741;SDS011;47650;49.848;9.620;2024-01-07T00:02:05;23.90;;;17.25;;
61741;SDS011;47650;49.848;9.620;2024-01-07T00:04:30;20.58;;;15.30;;
61741;SDS011;47650;49.848;9.620;2024-01-07T00:06:56;19.83;;;12.85;;
61741;SDS011;47650;49.848;9.620;2024-01-07T00:09:21;19.45;;;13.85;;
61741;SDS011;47650;49.848;9.620;2024-01-07T00:11:46;20.48;;;14.48;;
61741;SDS011;47650;49.848;9.620;2024-01-07T00:14:12;20.13;;;15.55;;
61741;SDS011;47650;49.848;9.620;2024-01-07T00:16:37;16.80;;;13.52;;
61741;SDS011;47650;49.848;9.620;2024-01-07T00:19:05;21.17;;;14.95;;
61741;SDS011;47650;49.848;9.620;2024-01-07T00:21:31;17.55;;;14.48;;
61741;SDS011;47650;49.848;9.620;2024-01-07T00:23:57;22.25;;;16.10;;
61741;SDS011;47650;49.848;9.620;2024-01-07T00:26:22;19.35;;;13.93;;
61741;SDS011;47650;49.848;9.620;2024-01-07T00:28:47;21.17;;;15.25;;
61741;SDS011;47650;49.848;9.620;2024-01-07T00:31:13;21.50;;;15.18;;
61741;SDS011;47650;49.848;9.620;2024-01-07T00:33:39;19.30;;;15.10;;
61741;SDS011;47650;49.848;9.620;2024-01-07T00:36:04;20.35;;;16.25;;
61741;SDS011;47650;49.848;9.620;2024-01-07T00:38:30;21.90;;;15.20;;
61741;SDS011;47650;49.848;9.620;2024-01-07T00:40:55;17.75;;;14.50;;
61741;SDS011;47650;49.848;9.620;2024-01-07T00:43:20;21.83;;;14.20;;
61741;SDS011;47650;49.848;9.620;2024-01-07T00:45:47;19.80;;;14.98;;
61741;SDS011;47650;49.848;9.620;2024-01-07T00:48:13;19.13;;;14.05;;
61741;SDS011;47650;49.848;9.620;2024-01-07T00:50:39;19.88;;;14.98;;
61741;SDS011;47650;49.848;9.620;2024-01-07T00:53:05;21.55;;;16.65;;
61741;SDS011;47650;49.848;9.620;2024-01-07T00:55:30;16.65;;;13.38;;
61741;SDS011;47650;49.848;9.620;2024-01-07T00:57:55;19.15;;;15.25;;
61741;SDS011;47650;49.848;9.620;2024-01-07T01:00:21;20.10;;;15.93;;
61741;SDS011;47650;49.848;9.620;2024-01-07T01:02:47;20.98;;;14.73;;
61741;SDS011;47650;49.848;9.620;2024-01-07T01:05:12;20.60;;;14.15;;
61741;SDS011;47650;49.848;9.620;2024-01-07T01:07:38;17.58;;;14.27;;
61741;SDS011;47650;49.848;9.620;2024-01-07T01:10:04;25.95;;;17.70;;
61741;SDS011;47650;49.848;9.620;2024-01-07T01:12:30;21.75;;;16.45;;
61741;SDS011;47650;49.848;9.620;2024-01-07T01:14:56;23.63;;;18.23;;
61741;SDS011;47650;49.848;9.620;2024-01-07T01:17:21;24.60;;;18.00;;
61741;SDS011;47650;49.848;9.620;2024-01-07T01:19:46;22.27;;;17.88;;
61741;SDS011;47650;49.848;9.620;2024-01-07T01:22:12;24.35;;;17.65;;
61741;SDS011;47650;49.848;9.620;2024-01-07T01:24:37;23.15;;;18.42;;
61741;SDS011;47650;49.848;9.620;2024-01-07T01:27:03;30.55;;;21.05;;
61741;SDS011;47650;49.848;9.620;2024-01-07T01:29:30;24.10;;;19.00;;
61741;SDS011;47650;49.848;9.620;2024-01-07T01:31:56;30.00;;;19.67;;
61741;SDS011;47650;49.848;9.620;2024-01-07T01:34:22;26.17;;;19.23;;
61741;SDS011;47650;49.848;9.620;2024-01-07T01:36:47;26.58;;;18.35;;
61741;SDS011;47650;49.848;9.620;2024-01-07T01:39:13;30.27;;;21.25;;
61741;SDS011;47650;49.848;9.620;2024-01-07T01:41:39;31.40;;;21.70;;
61741;SDS011;47650;49.848;9.620;2024-01-07T01:44:05;29.42;;;20.58;;
61741;SDS011;47650;49.848;9.620;2024-01-07T01:46:30;35.58;;;23.52;;
61741;SDS011;47650;49.848;9.620;2024-01-07T01:48:56;31.27;;;22.27;;
61741;SDS011;47650;49.848;9.620;2024-01-07T01:51:22;39.00;;;22.58;;
61741;SDS011;47650;49.848;9.620;2024-01-07T01:53:48;33.10;;;22.05;;
61741;SDS011;47650;49.848;9.620;2024-01-07T01:56:16;29.90;;;20.55;;
61741;SDS011;47650;49.848;9.620;2024-01-07T01:58:45;31.50;;;20.35;;
61741;SDS011;47650;49.848;9.620;2024-01-07T02:01:12;23.67;;;19.27;;
61741;SDS011;47650;49.848;9.620;2024-01-07T02:03:38;31.70;;;22.00;;
61741;SDS011;47650;49.848;9.620;2024-01-07T02:06:03;29.98;;;21.35;;
61741;SDS011;47650;49.848;9.620;2024-01-07T02:08:29;33.22;;;20.23;;
61741;SDS011;47650;49.848;9.620;2024-01-07T02:10:54;24.40;;;19.02;;
61741;SDS011;47650;49.848;9.620;2024-01-07T02:13:20;37.50;;;21.20;;
61741;SDS011;47650;49.848;9.620;2024-01-07T02:15:45;27.65;;;20.50;;
61741;SDS011;47650;49.848;9.620;2024-01-07T02:18:11;29.48;;;21.02;;
61741;SDS011;47650;49.848;9.620;2024-01-07T02:20:37;25.88;;;18.13;;
61741;SDS011;47650;49.848;9.620;2024-01-07T02:23:03;29.10;;;20.67;;
61741;SDS011;47650;49.848;9.620;2024-01-07T02:25:29;33.78;;;20.17;;
61741;SDS011;47650;49.848;9.620;2024-01-07T02:27:54;28.48;;;18.52;;
61741;SDS011;47650;49.848;9.620;2024-01-07T02:30:20;24.63;;;18.90;;
61741;SDS011;47650;49.848;9.620;2024-01-07T02:32:45;22.85;;;17.80;;
61741;SDS011;47650;49.848;9.620;2024-01-07T02:35:11;29.10;;;20.42;;
61741;SDS011;47650;49.848;9.620;2024-01-07T02:37:37;25.85;;;18.80;;
61741;SDS011;47650;49.848;9.620;2024-01-07T02:40:02;27.98;;;19.67;;
61741;SDS011;47650;49.848;9.620;2024-01-07T02:42:28;26.35;;;19.42;;
61741;SDS011;47650;49.848;9.620;2024-01-07T02:44:53;24.63;;;18.13;;
61741;SDS011;47650;49.848;9.620;2024-01-07T02:47:18;24.50;;;18.25;;
61741;SDS011;47650;49.848;9.620;2024-01-07T02:49:44;30.95;;;20.45;;
61741;SDS011;47650;49.848;9.620;2024-01-07T02:52:09;24.90;;;19.38;;
61741;SDS011;47650;49.848;9.620;2024-01-07T02:54:34;25.35;;;18.83;;
61741;SDS011;47650;49.848;9.620;2024-01-07T02:57:00;25.17;;;18.77;;
61741;SDS011;47650;49.848;9.620;2024-01-07T02:59:25;30.95;;;19.60;;
61741;SDS011;47650;49.848;9.620;2024-01-07T03:01:51;27.05;;;18.50;;
61741;SDS011;47650;49.848;9.620;2024-01-07T03:04:16;26.50;;;19.20;;
61741;SDS011;47650;49.848;9.620;2024-01-07T03:06:42;26.95;;;19.55;;
61741;SDS011;47650;49.848;9.620;2024-01-07T03:15:50;21.35;;;15.60;;
61741;SDS011;47650;49.848;9.620;2024-01-07T03:18:17;22.75;;;15.23;;
61741;SDS011;47650;49.848;9.620;2024-01-07T03:20:45;16.92;;;14.02;;
61741;SDS011;47650;49.848;9.620;2024-01-07T03:23:10;18.48;;;14.50;;
61741;SDS011;47650;49.848;9.620;2024-01-07T03:25:37;18.27;;;13.75;;
61741;SDS011;47650;49.848;9.620;2024-01-07T03:28:02;16.15;;;12.77;;
61741;SDS011;47650;49.848;9.620;2024-01-07T03:30:27;15.90;;;12.02;;
61741;SDS011;47650;49.848;9.620;2024-01-07T03:32:53;15.82;;;12.20;;
61741;SDS011;47650;49.848;9.620;2024-01-07T03:35:20;13.68;;;11.02;;
61741;SDS011;47650;49.848;9.620;2024-01-07T03:37:49;16.13;;;12.25;;
61741;SDS011;47650;49.848;9.620;2024-01-07T03:40:14;15.60;;;11.43;;
61741;SDS011;47650;49.848;9.620;2024-01-07T03:42:40;15.00;;;12.80;;
61741;SDS011;47650;49.848;9.620;2024-01-07T03:45:05;18.67;;;12.18;;
61741;SDS011;47650;49.848;9.620;2024-01-07T03:47:30;14.48;;;11.43;;
61741;SDS011;47650;49.848;9.620;2024-01-07T03:49:57;17.73;;;12.88;;
61741;SDS011;47650;49.848;9.620;2024-01-07T03:52:22;16.25;;;12.80;;
61741;SDS011;47650;49.848;9.620;2024-01-07T03:54:47;16.75;;;12.10;;
61741;SDS011;47650;49.848;9.620;2024-01-07T03:57:13;14.48;;;11.27;;
61741;SDS011;47650;49.848;9.620;2024-01-07T03:59:40;16.23;;;11.68;;
61741;SDS011;47650;49.848;9.620;2024-01-07T04:02:05;14.40;;;11.57;;
61741;SDS011;47650;49.848;9.620;2024-01-07T04:04:31;14.18;;;11.65;;
61741;SDS011;47650;49.848;9.620;2024-01-07T04:06:56;16.95;;;12.38;;
61741;SDS011;47650;49.848;9.620;2024-01-07T04:09:22;15.90;;;11.82;;
61741;SDS011;47650;49.848;9.620;2024-01-07T04:11:47;15.23;;;11.25;;
61741;SDS011;47650;49.848;9.620;2024-01-07T04:14:14;15.07;;;11.95;;
61741;SDS011;47650;49.848;9.620;2024-01-07T04:16:40;14.98;;;10.98;;
61741;SDS011;47650;49.848;9.620;2024-01-07T04:19:06;14.55;;;11.93;;
61741;SDS011;47650;49.848;9.620;2024-01-07T04:21:32;17.35;;;13.07;;
61741;SDS011;47650;49.848;9.620;2024-01-07T04:23:57;15.70;;;12.20;;
61741;SDS011;47650;49.848;9.620;2024-01-07T04:26:23;16.13;;;11.73;;
61741;SDS011;47650;49.848;9.620;2024-01-07T04:28:48;13.90;;;10.63;;
61741;SDS011;47650;49.848;9.620;2024-01-07T04:33:43;17.23;;;12.05;;
61741;SDS011;47650;49.848;9.620;2024-01-07T04:36:08;13.13;;;9.95;;
61741;SDS011;47650;49.848;9.620;2024-01-07T04:38:34;16.08;;;11.23;;
61741;SDS011;47650;49.848;9.620;2024-01-07T04:41:00;13.13;;;10.13;;
61741;SDS011;47650;49.848;9.620;2024-01-07T04:43:25;11.55;;;9.70;;
61741;SDS011;47650;49.848;9.620;2024-01-07T04:45:53;14.30;;;10.50;;
61741;SDS011;47650;49.848;9.620;2024-01-07T04:48:20;11.80;;;10.23;;
61741;SDS011;47650;49.848;9.620;2024-01-07T04:50:46;13.55;;;9.90;;
61741;SDS011;47650;49.848;9.620;2024-01-07T04:53:12;12.93;;;10.27;;
61741;SDS011;47650;49.848;9.620;2024-01-07T04:55:37;10.75;;;9.15;;
61741;SDS011;47650;49.848;9.620;2024-01-07T04:58:04;13.25;;;10.30;;
61741;SDS011;47650;49.848;9.620;2024-01-07T05:00:30;12.57;;;9.35;;
61741;SDS011;47650;49.848;9.620;2024-01-07T05:02:56;13.80;;;9.85;;
61741;SDS011;47650;49.848;9.620;2024-01-07T05:05:22;12.52;;;9.48;;
61741;SDS011;47650;49.848;9.620;2024-01-07T05:07:48;13.38;;;9.60;;
61741;SDS011;47650;49.848;9.620;2024-01-07T05:10:14;10.52;;;8.07;;
61741;SDS011;47650;49.848;9.620;2024-01-07T05:12:41;14.07;;;8.55;;
61741;SDS011;47650;49.848;9.620;2024-01-07T05:15:07;12.05;;;8.38;;
61741;SDS011;47650;49.848;9.620;2024-01-07T05:17:32;12.15;;;9.05;;
61741;SDS011;47650;49.848;9.620;2024-01-07T05:19:58;12.27;;;8.48;;
61741;SDS011;47650;49.848;9.620;2024-01-07T05:22:23;11.32;;;8.48;;
61741;SDS011;47650;49.848;9.620;2024-01-07T05:24:49;13.25;;;8.52;;
61741;SDS011;47650;49.848;9.620;2024-01-07T05:27:14;11.65;;;8.77;;
61741;SDS011;47650;49.848;9.620;2024-01-07T05:29:39;12.00;;;8.98;;
61741;SDS011;47650;49.848;9.620;2024-01-07T05:32:10;11.77;;;8.98;;
61741;SDS011;47650;49.848;9.620;2024-01-07T05:34:35;12.32;;;8.77;;
61741;SDS011;47650;49.848;9.620;2024-01-07T05:37:02;12.45;;;9.02;;
61741;SDS011;47650;49.848;9.620;2024-01-07T05:39:27;13.05;;;9.70;;
61741;SDS011;47650;49.848;9.620;2024-01-07T05:41:52;12.23;;;8.95;;
61741;SDS011;47650;49.848;9.620;2024-01-07T05:44:19;12.43;;;9.18;;
61741;SDS011;47650;49.848;9.620;2024-01-07T05:46:44;12.15;;;9.43;;
61741;SDS011;47650;49.848;9.620;2024-01-07T05:49:10;13.25;;;9.00;;
61741;SDS011;47650;49.848;9.620;2024-01-07T05:51:38;11.18;;;8.40;;
61741;SDS011;47650;49.848;9.620;2024-01-07T05:54:07;11.02;;;8.02;;
61741;SDS011;47650;49.848;9.620;2024-01-07T05:56:40;12.00;;;7.95;;
61741;SDS011;47650;49.848;9.620;2024-01-07T05:59:06;11.07;;;7.82;;
61741;SDS011;47650;49.848;9.620;2024-01-07T06:01:32;10.95;;;7.20;;
61741;SDS011;47650;49.848;9.620;2024-01-07T06:03:57;9.93;;;7.32;;
61741;SDS011;47650;49.848;9.620;2024-01-07T06:06:23;11.45;;;7.65;;
61741;SDS011;47650;49.848;9.620;2024-01-07T06:08:48;9.32;;;7.03;;
61741;SDS011;47650;49.848;9.620;2024-01-07T06:11:14;9.75;;;6.97;;
61741;SDS011;47650;49.848;9.620;2024-01-07T06:13:45;9.25;;;6.82;;
61741;SDS011;47650;49.848;9.620;2024-01-07T06:16:11;7.72;;;5.88;;
61741;SDS011;47650;49.848;9.620;2024-01-07T06:18:37;8.82;;;6.50;;
61741;SDS011;47650;49.848;9.620;2024-01-07T06:21:03;9.52;;;6.45;;
61741;SDS011;47650;49.848;9.620;2024-01-07T06:23:28;9.23;;;6.50;;
61741;SDS011;47650;49.848;9.620;2024-01-07T06:25:53;7.97;;;5.70;;
61741;SDS011;47650;49.848;9.620;2024-01-07T06:28:19;7.13;;;5.38;;
61741;SDS011;47650;49.848;9.620;2024-01-07T06:30:45;7.25;;;5.63;;
61741;SDS011;47650;49.848;9.620;2024-01-07T06:33:10;7.15;;;4.90;;
61741;SDS011;47650;49.848;9.620;2024-01-07T06:35:38;8.82;;;5.10;;
61741;SDS011;47650;49.848;9.620;2024-01-07T06:38:04;8.73;;;5.78;;
61741;SDS011;47650;49.848;9.620;2024-01-07T06:40:30;8.20;;;6.50;;
61741;SDS011;47650;49.848;9.620;2024-01-07T06:42:57;8.05;;;5.93;;
61741;SDS011;47650;49.848;9.620;2024-01-07T06:45:23;7.65;;;5.72;;
61741;SDS011;47650;49.848;9.620;2024-01-07T06:47:48;8.15;;;6.03;;
61741;SDS011;47650;49.848;9.620;2024-01-07T06:50:13;8.48;;;5.97;;
61741;SDS011;47650;49.848;9.620;2024-01-07T06:52:39;9.57;;;6.72;;
61741;SDS011;47650;49.848;9.620;2024-01-07T06:55:05;7.82;;;5.93;;
61741;SDS011;47650;49.848;9.620;2024-01-07T06:57:33;8.45;;;6.05;;
61741;SDS011;47650;49.848;9.620;2024-01-07T06:59:58;7.03;;;5.60;;
61741;SDS011;47650;49.848;9.620;2024-01-07T07:02:24;7.78;;;5.28;;
61741;SDS011;47650;49.848;9.620;2024-01-07T07:04:51;8.20;;;5.57;;
61741;SDS011;47650;49.848;9.620;2024-01-07T07:07:17;9.50;;;6.00;;
61741;SDS011;47650;49.848;9.620;2024-01-07T07:09:42;8.13;;;5.85;;
61741;SDS011;47650;49.848;9.620;2024-01-07T07:12:08;8.10;;;5.57;;
61741;SDS011;47650;49.848;9.620;2024-01-07T07:14:34;7.20;;;4.90;;
61741;SDS011;47650;49.848;9.620;2024-01-07T07:16:59;7.57;;;5.25;;
61741;SDS011;47650;49.848;9.620;2024-01-07T07:19:25;7.70;;;5.90;;
61741;SDS011;47650;49.848;9.620;2024-01-07T07:24:18;7.70;;;5.88;;
61741;SDS011;47650;49.848;9.620;2024-01-07T07:26:43;6.53;;;5.15;;
61741;SDS011;47650;49.848;9.620;2024-01-07T07:29:09;6.47;;;4.93;;
61741;SDS011;47650;49.848;9.620;2024-01-07T07:31:35;8.85;;;5.82;;
61741;SDS011;47650;49.848;9.620;2024-01-07T07:34:02;8.30;;;5.95;;
61741;SDS011;47650;49.848;9.620;2024-01-07T07:36:28;9.18;;;6.38;;
61741;SDS011;47650;49.848;9.620;2024-01-07T07:38:54;8.50;;;6.10;;
61741;SDS011;47650;49.848;9.620;2024-01-07T07:41:19;8.95;;;6.35;;
61741;SDS011;47650;49.848;9.620;2024-01-07T07:43:45;8.43;;;6.25;;
61741;SDS011;47650;49.848;9.620;2024-01-07T07:46:12;9.35;;;6.05;;
61741;SDS011;47650;49.848;9.620;2024-01-07T07:48:38;7.95;;;5.72;;
61741;SDS011;47650;49.848;9.620;2024-01-07T07:51:05;8.07;;;5.45;;
61741;SDS011;47650;49.848;9.620;2024-01-07T07:53:31;7.93;;;5.45;;
61741;SDS011;47650;49.848;9.620;2024-01-07T07:55:58;8.05;;;5.78;;
61741;SDS011;47650;49.848;9.620;2024-01-07T07:58:25;7.60;;;5.47;;
61741;SDS011;47650;49.848;9.620;2024-01-07T08:00:54;6.30;;;4.90;;
61741;SDS011;47650;49.848;9.620;2024-01-07T08:03:21;8.70;;;6.00;;
61741;SDS011;47650;49.848;9.620;2024-01-07T08:05:56;6.53;;;5.38;;
61741;SDS011;47650;49.848;9.620;2024-01-07T08:08:23;9.52;;;6.50;;
61741;SDS011;47650;49.848;9.620;2024-01-07T08:10:52;7.32;;;5.53;;
61741;SDS011;47650;49.848;9.620;2024-01-07T08:13:19;6.82;;;5.10;;
61741;SDS011;47650;49.848;9.620;2024-01-07T08:15:46;6.65;;;4.78;;
61741;SDS011;47650;49.848;9.620;2024-01-07T08:18:13;7.03;;;5.35;;
61741;SDS011;47650;49.848;9.620;2024-01-07T08:20:40;5.55;;;4.47;;
61741;SDS011;47650;49.848;9.620;2024-01-07T08:23:05;5.95;;;4.60;;
61741;SDS011;47650;49.848;9.620;2024-01-07T08:25:33;5.68;;;4.47;;
61741;SDS011;47650;49.848;9.620;2024-01-07T08:27:58;6.32;;;4.68;;
61741;SDS011;47650;49.848;9.620;2024-01-07T08:30:26;5.80;;;4.97;;
61741;SDS011;47650;49.848;9.620;2024-01-07T08:32:52;5.80;;;4.32;;
61741;SDS011;47650;49.848;9.620;2024-01-07T08:35:19;5.22;;;4.47;;
61741;SDS011;47650;49.848;9.620;2024-01-07T08:37:45;5.53;;;4.53;;
61741;SDS011;47650;49.848;9.620;2024-01-07T08:40:12;8.23;;;6.28;;
61741;SDS011;47650;49.848;9.620;2024-01-07T08:42:38;6.82;;;5.25;;
61741;SDS011;47650;49.848;9.620;2024-01-07T08:45:04;6.10;;;4.50;;
61741;SDS011;47650;49.848;9.620;2024-01-07T08:47:30;5.95;;;5.03;;
61741;SDS011;47650;49.848;9.620;2024-01-07T08:49:56;6.30;;;4.95;;
61741;SDS011;47650;49.848;9.620;2024-01-07T08:52:24;7.00;;;6.13;;
61741;SDS011;47650;49.848;9.620;2024-01-07T08:54:49;7.18;;;5.00;;
61741;SDS011;47650;49.848;9.620;2024-01-07T08:57:16;7.47;;;5.07;;
61741;SDS011;47650;49.848;9.620;2024-01-07T08:59:41;5.63;;;4.70;;
61741;SDS011;47650;49.848;9.620;2024-01-07T09:02:07;6.63;;;5.40;;
61741;SDS011;47650;49.848;9.620;2024-01-07T09:04:33;6.38;;;5.00;;
61741;SDS011;47650;49.848;9.620;2024-01-07T09:06:58;6.03;;;4.90;;
61741;SDS011;47650;49.848;9.620;2024-01-07T09:09:24;6.00;;;4.95;;
61741;SDS011;47650;49.848;9.620;2024-01-07T09:11:49;6.18;;;4.82;;
61741;SDS011;47650;49.848;9.620;2024-01-07T09:14:15;6.43;;;5.45;;
61741;SDS011;47650;49.848;9.620;2024-01-07T09:16:40;7.45;;;5.80;;
61741;SDS011;47650;49.848;9.620;2024-01-07T09:19:05;6.63;;;4.95;;
61741;SDS011;47650;49.848;9.620;2024-01-07T09:21:31;7.15;;;5.82;;
61741;SDS011;47650;49.848;9.620;2024-01-07T09:23:56;7.13;;;5.05;;
61741;SDS011;47650;49.848;9.620;2024-01-07T09:26:22;6.90;;;5.05;;
61741;SDS011;47650;49.848;9.620;2024-01-07T09:28:47;8.80;;;5.72;;
61741;SDS011;47650;49.848;9.620;2024-01-07T09:31:13;6.43;;;5.28;;
61741;SDS011;47650;49.848;9.620;2024-01-07T09:33:40;7.35;;;5.80;;
61741;SDS011;47650;49.848;9.620;2024-01-07T09:36:06;8.15;;;6.10;;
61741;SDS011;47650;49.848;9.620;2024-01-07T09:38:32;9.93;;;6.40;;
61741;SDS011;47650;49.848;9.620;2024-01-07T09:40:58;7.85;;;6.22;;
61741;SDS011;47650;49.848;9.620;2024-01-07T09:43:24;7.68;;;5.95;;
61741;SDS011;47650;49.848;9.620;2024-01-07T09:45:51;7.47;;;6.10;;
61741;SDS011;47650;49.848;9.620;2024-01-07T09:48:19;8.95;;;6.38;;
61741;SDS011;47650;49.848;9.620;2024-01-07T09:50:44;11.43;;;6.93;;
61741;SDS011;47650;49.848;9.620;2024-01-07T09:53:14;9.18;;;6.85;;
61741;SDS011;47650;49.848;9.620;2024-01-07T09:58:36;9.10;;;7.15;;
61741;SDS011;47650;49.848;9.620;2024-01-07T10:01:01;9.40;;;6.70;;
61741;SDS011;47650;49.848;9.620;2024-01-07T10:03:29;10.48;;;7.75;;
61741;SDS011;47650;49.848;9.620;2024-01-07T10:05:55;9.70;;;7.47;;
61741;SDS011;47650;49.848;9.620;2024-01-07T10:08:21;10.68;;;8.10;;
61741;SDS011;47650;49.848;9.620;2024-01-07T10:10:48;9.40;;;7.32;;
61741;SDS011;47650;49.848;9.620;2024-01-07T10:13:14;9.98;;;7.72;;
61741;SDS011;47650;49.848;9.620;2024-01-07T10:15:40;10.82;;;8.00;;
61741;SDS011;47650;49.848;9.620;2024-01-07T10:18:07;9.70;;;7.68;;
61741;SDS011;47650;49.848;9.620;2024-01-07T10:20:33;10.25;;;7.50;;
61741;SDS011;47650;49.848;9.620;2024-01-07T10:23:03;10.10;;;7.80;;
61741;SDS011;47650;49.848;9.620;2024-01-07T10:25:31;10.15;;;6.93;;
61741;SDS011;47650;49.848;9.620;2024-01-07T10:27:59;10.27;;;7.05;;
61741;SDS011;47650;49.848;9.620;2024-01-07T10:30:25;9.10;;;7.32;;
61741;SDS011;47650;49.848;9.620;2024-01-07T10:32:54;9.43;;;7.03;;
61741;SDS011;47650;49.848;9.620;2024-01-07T10:35:22;8.73;;;7.10;;
61741;SDS011;47650;49.848;9.620;2024-01-07T10:38:01;9.13;;;7.00;;
61741;SDS011;47650;49.848;9.620;2024-01-07T10:40:27;7.82;;;6.13;;
61741;SDS011;47650;49.848;9.620;2024-01-07T10:42:54;7.47;;;5.63;;
61741;SDS011;47650;49.848;9.620;2024-01-07T10:45:20;8.52;;;6.32;;
61741;SDS011;47650;49.848;9.620;2024-01-07T10:47:48;7.95;;;6.32;;
61741;SDS011;47650;49.848;9.620;2024-01-07T10:50:16;5.78;;;5.15;;
61741;SDS011;47650;49.848;9.620;2024-01-07T10:52:43;8.55;;;5.93;;
61741;SDS011;47650;49.848;9.620;2024-01-07T10:55:14;8.50;;;6.30;;
61741;SDS011;47650;49.848;9.620;2024-01-07T10:57:43;9.50;;;6.45;;
61741;SDS011;47650;49.848;9.620;2024-01-07T11:00:10;8.05;;;5.63;;
61741;SDS011;47650;49.848;9.620;2024-01-07T11:05:56;7.60;;;5.53;;
61741;SDS011;47650;49.848;9.620;2024-01-07T11:08:36;8.48;;;6.13;;
61741;SDS011;47650;49.848;9.620;2024-01-07T11:11:08;9.13;;;5.40;;
61741;SDS011;47650;49.848;9.620;2024-01-07T11:16:12;8.65;;;5.90;;
61741;SDS011;47650;49.848;9.620;2024-01-07T11:18:39;7.50;;;5.80;;
61741;SDS011;47650;49.848;9.620;2024-01-07T11:21:05;8.20;;;5.97;;
61741;SDS011;47650;49.848;9.620;2024-01-07T11:23:34;8.48;;;5.97;;
61741;SDS011;47650;49.848;9.620;2024-01-07T11:26:05;6.93;;;5.22;;
61741;SDS011;47650;49.848;9.620;2024-01-07T11:31:09;8.35;;;6.38;;
61741;SDS011;47650;49.848;9.620;2024-01-07T11:33:38;7.57;;;5.68;;
61741;SDS011;47650;49.848;9.620;2024-01-07T11:36:04;8.95;;;6.00;;
61741;SDS011;47650;49.848;9.620;2024-01-07T11:38:30;8.50;;;5.68;;
61741;SDS011;47650;49.848;9.620;2024-01-07T11:40:56;8.70;;;5.97;;
61741;SDS011;47650;49.848;9.620;2024-01-07T11:43:24;7.10;;;5.75;;
61741;SDS011;47650;49.848;9.620;2024-01-07T11:45:50;8.77;;;5.50;;
61741;SDS011;47650;49.848;9.620;2024-01-07T11:48:17;8.25;;;5.57;;
61741;SDS011;47650;49.848;9.620;2024-01-07T11:50:43;10.18;;;6.03;;
61741;SDS011;47650;49.848;9.620;2024-01-07T11:53:11;7.55;;;6.13;;
61741;SDS011;47650;49.848;9.620;2024-01-07T11:55:37;7.28;;;5.55;;
61741;SDS011;47650;49.848;9.620;2024-01-07T11:58:03;8.60;;;5.68;;
61741;SDS011;47650;49.848;9.620;2024-01-07T12:00:32;9.05;;;5.80;;
61741;SDS011;47650;49.848;9.620;2024-01-07T12:03:00;8.10;;;5.68;;
61741;SDS011;47650;49.848;9.620;2024-01-07T12:05:28;8.68;;;5.28;;
61741;SDS011;47650;49.848;9.620;2024-01-07T12:07:53;7.70;;;5.35;;
61741;SDS011;47650;49.848;9.620;2024-01-07T12:10:19;5.88;;;4.88;;
61741;SDS011;47650;49.848;9.620;2024-01-07T12:12:44;7.40;;;5.40;;
61741;SDS011;47650;49.848;9.620;2024-01-07T12:15:10;7.32;;;5.10;;
61741;SDS011;47650;49.848;9.620;2024-01-07T12:17:40;7.93;;;5.85;;
61741;SDS011;47650;49.848;9.620;2024-01-07T12:20:06;6.75;;;5.80;;
61741;SDS011;47650;49.848;9.620;2024-01-07T12:22:33;6.60;;;4.55;;
61741;SDS011;47650;49.848;9.620;2024-01-07T12:25:05;6.43;;;5.22;;
61741;SDS011;47650;49.848;9.620;2024-01-07T12:27:31;9.10;;;6.75;;
61741;SDS011;47650;49.848;9.620;2024-01-07T12:29:59;7.63;;;5.40;;
61741;SDS011;47650;49.848;9.620;2024-01-07T12:32:27;7.30;;;5.30;;
61741;SDS011;47650;49.848;9.620;2024-01-07T12:34:53;8.13;;;5.95;;
61741;SDS011;47650;49.848;9.620;2024-01-07T12:37:18;7.65;;;5.60;;
61741;SDS011;47650;49.848;9.620;2024-01-07T12:39:44;7.53;;;5.25;;
61741;SDS011;47650;49.848;9.620;2024-01-07T12:42:09;8.10;;;5.50;;
61741;SDS011;47650;49.848;9.620;2024-01-07T12:44:37;6.43;;;5.07;;
61741;SDS011;47650;49.848;9.620;2024-01-07T12:47:03;7.13;;;4.82;;
61741;SDS011;47650;49.848;9.620;2024-01-07T12:49:29;7.32;;;5.47;;
61741;SDS011;47650;49.848;9.620;2024-01-07T12:54:22;7.40;;;5.68;;
61741;SDS011;47650;49.848;9.620;2024-01-07T12:56:49;8.23;;;5.53;;
61741;SDS011;47650;49.848;9.620;2024-01-07T12:59:17;7.85;;;5.35;;
61741;SDS011;47650;49.848;9.620;2024-01-07T13:01:53;9.00;;;6.10;;
61741;SDS011;47650;49.848;9.620;2024-01-07T13:04:19;7.60;;;5.65;;
61741;SDS011;47650;49.848;9.620;2024-01-07T13:06:45;8.85;;;5.35;;
61741;SDS011;47650;49.848;9.620;2024-01-07T13:09:11;7.78;;;5.78;;
61741;SDS011;47650;49.848;9.620;2024-01-07T13:11:36;7.63;;;5.90;;
61741;SDS011;47650;49.848;9.620;2024-01-07T13:14:03;9.30;;;5.63;;
61741;SDS011;47650;49.848;9.620;2024-01-07T13:16:30;7.50;;;5.35;;
61741;SDS011;47650;49.848;9.620;2024-01-07T13:18:59;7.97;;;5.68;;
61741;SDS011;47650;49.848;9.620;2024-01-07T13:21:26;8.20;;;5.63;;
61741;SDS011;47650;49.848;9.620;2024-01-07T13:23:51;8.57;;;6.20;;
61741;SDS011;47650;49.848;9.620;2024-01-07T13:26:17;9.60;;;5.35;;
61741;SDS011;47650;49.848;9.620;2024-01-07T13:28:43;8.45;;;5.80;;
61741;SDS011;47650;49.848;9.620;2024-01-07T13:31:09;10.02;;;5.88;;
61741;SDS011;47650;49.848;9.620;2024-01-07T13:33:39;7.38;;;5.20;;
61741;SDS011;47650;49.848;9.620;2024-01-07T13:36:05;8.32;;;5.72;;
61741;SDS011;47650;49.848;9.620;2024-01-07T13:38:35;9.88;;;5.95;;
61741;SDS011;47650;49.848;9.620;2024-01-07T13:41:06;7.95;;;5.55;;
61741;SDS011;47650;49.848;9.620;2024-01-07T13:43:35;7.55;;;5.32;;
61741;SDS011;47650;49.848;9.620;2024-01-07T13:46:02;9.10;;;5.30;;
61741;SDS011;47650;49.848;9.620;2024-01-07T13:48:28;8.25;;;5.20;;
61741;SDS011;47650;49.848;9.620;2024-01-07T13:50:55;8.32;;;5.18;;
61741;SDS011;47650;49.848;9.620;2024-01-07T13:53:22;8.57;;;5.80;;
61741;SDS011;47650;49.848;9.620;2024-01-07T13:55:49;8.18;;;4.93;;
61741;SDS011;47650;49.848;9.620;2024-01-07T13:58:15;9.48;;;5.57;;
61741;SDS011;47650;49.848;9.620;2024-01-07T14:00:41;8.80;;;5.15;;
61741;SDS011;47650;49.848;9.620;2024-01-07T14:03:07;7.82;;;4.97;;
61741;SDS011;47650;49.848;9.620;2024-01-07T14:05:41;8.43;;;5.32;;
61741;SDS011;47650;49.848;9.620;2024-01-07T14:08:06;8.50;;;5.18;;
61741;SDS011;47650;49.848;9.620;2024-01-07T14:10:31;8.48;;;5.40;;
61741;SDS011;47650;49.848;9.620;2024-01-07T14:12:57;7.20;;;5.20;;
61741;SDS011;47650;49.848;9.620;2024-01-07T14:15:23;8.40;;;5.07;;
61741;SDS011;47650;49.848;9.620;2024-01-07T14:17:48;7.68;;;4.70;;
61741;SDS011;47650;49.848;9.620;2024-01-07T14:20:14;6.95;;;4.65;;
61741;SDS011;47650;49.848;9.620;2024-01-07T14:22:39;10.07;;;5.18;;
61741;SDS011;47650;49.848;9.620;2024-01-07T14:25:05;6.97;;;4.65;;
61741;SDS011;47650;49.848;9.620;2024-01-07T14:27:32;8.75;;;5.20;;
61741;SDS011;47650;49.848;9.620;2024-01-07T14:29:57;7.68;;;4.22;;
61741;SDS011;47650;49.848;9.620;2024-01-07T14:32:22;12.60;;;6.28;;
61741;SDS011;47650;49.848;9.620;2024-01-07T14:34:48;9.50;;;5.00;;
61741;SDS011;47650;49.848;9.620;2024-01-07T14:37:16;5.78;;;3.97;;
61741;SDS011;47650;49.848;9.620;2024-01-07T14:39:42;8.55;;;4.68;;
61741;SDS011;47650;49.848;9.620;2024-01-07T14:42:07;6.13;;;3.75;;
61741;SDS011;47650;49.848;9.620;2024-01-07T14:44:34;8.13;;;4.80;;
61741;SDS011;47650;49.848;9.620;2024-01-07T14:46:59;6.78;;;4.50;;
61741;SDS011;47650;49.848;9.620;2024-01-07T14:49:25;6.00;;;3.88;;
61741;SDS011;47650;49.848;9.620;2024-01-07T14:51:50;6.65;;;4.47;;
61741;SDS011;47650;49.848;9.620;2024-01-07T14:54:17;5.28;;;3.42;;
61741;SDS011;47650;49.848;9.620;2024-01-07T14:56:42;7.40;;;3.95;;
61741;SDS011;47650;49.848;9.620;2024-01-07T14:59:09;6.75;;;3.58;;